createdAt,value
2023-07-19T00:02:13.105Z,84.14
2023-07-19T00:04:40.504Z,84.12
2023-07-19T00:07:07.629Z,84.48
2023-07-19T00:09:34.767Z,84.86
2023-07-19T00:12:01.897Z,85.12
2023-07-19T00:14:28.934Z,85.66
2023-07-19T00:16:56.376Z,85.78
2023-07-19T00:19:25.618Z,85.44
2023-07-19T00:21:52.731Z,85.56
2023-07-19T00:24:20.899Z,85.29
2023-07-19T00:26:50.177Z,85.32
2023-07-19T00:29:17.325Z,85.31
2023-07-19T00:31:45.205Z,85.03
2023-07-19T00:34:13.070Z,84.86
2023-07-19T00:36:40.312Z,84.73
2023-07-19T00:39:07.391Z,84.52
2023-07-19T00:41:35.778Z,84.59
2023-07-19T00:44:05.014Z,84.40
2023-07-19T00:46:32.230Z,84.16
2023-07-19T00:48:59.756Z,84.41
2023-07-19T00:51:26.779Z,84.32
2023-07-19T00:53:53.842Z,83.97
2023-07-19T00:56:23.980Z,84.29
2023-07-19T00:58:51.974Z,84.35
2023-07-19T01:01:21.938Z,84.98
2023-07-19T01:03:49.208Z,85.29
2023-07-19T01:06:16.312Z,85.87
2023-07-19T01:08:43.461Z,85.81
2023-07-19T01:11:10.973Z,85.77
2023-07-19T01:13:38.838Z,86.47
2023-07-19T01:16:05.900Z,86.40
2023-07-19T01:18:33.770Z,86.56
2023-07-19T01:21:10.217Z,86.89
2023-07-19T01:23:45.804Z,87.20
2023-07-19T01:26:12.923Z,87.27
2023-07-19T01:28:40.496Z,87.63
2023-07-19T01:31:08.008Z,87.77
2023-07-19T01:33:35.251Z,88.04
2023-07-19T01:36:02.456Z,87.75
2023-07-19T01:38:31.328Z,87.77
2023-07-19T01:40:58.432Z,87.81
2023-07-19T01:43:25.504Z,87.68
2023-07-19T01:45:53.806Z,87.65
2023-07-19T01:48:20.882Z,87.74
2023-07-19T01:50:48.756Z,87.74
2023-07-19T01:53:16.511Z,87.45
2023-07-19T01:55:43.793Z,87.13
2023-07-19T01:58:12.320Z,86.98
2023-07-19T02:00:42.082Z,86.79
2023-07-19T02:03:12.163Z,87.10
2023-07-19T02:05:39.850Z,86.98
2023-07-19T02:08:08.611Z,86.72
2023-07-19T02:10:35.660Z,86.20
2023-07-19T02:13:02.779Z,86.89
2023-07-19T02:15:30.002Z,87.29
2023-07-19T02:17:58.934Z,87.61
2023-07-19T02:20:26.093Z,87.65
2023-07-19T02:22:53.809Z,87.32
2023-07-19T02:25:21.922Z,87.21
2023-07-19T02:27:49.111Z,87.05
2023-07-19T02:30:16.378Z,87.35
2023-07-19T02:32:45.356Z,87.40
2023-07-19T02:35:13.245Z,87.38
2023-07-19T02:37:41.769Z,87.31
2023-07-19T02:40:09.941Z,87.87
2023-07-19T02:42:37.242Z,87.65
2023-07-19T02:45:05.692Z,87.28
2023-07-19T02:47:33.724Z,87.13
2023-07-19T02:50:00.967Z,87.32
2023-07-19T02:52:28.206Z,87.45
2023-07-19T02:54:55.325Z,87.40
2023-07-19T02:57:22.551Z,87.56
2023-07-19T02:59:49.797Z,87.27
2023-07-19T03:02:17.038Z,87.13
2023-07-19T03:04:46.814Z,87.18
2023-07-19T03:07:15.545Z,87.42
2023-07-19T03:09:42.636Z,87.67
2023-07-19T03:12:09.821Z,87.79
2023-07-19T03:14:36.880Z,88.06
2023-07-19T03:17:04.162Z,88.03
2023-07-19T03:19:31.561Z,88.19
2023-07-19T03:21:58.682Z,88.38
2023-07-19T03:24:25.799Z,88.34
2023-07-19T03:26:52.851Z,88.14
2023-07-19T03:29:20.547Z,87.31
2023-07-19T03:31:47.830Z,87.36
2023-07-19T03:34:15.564Z,87.78
2023-07-19T03:36:45.786Z,88.37
2023-07-19T03:39:13.176Z,88.67
2023-07-19T03:41:40.320Z,88.91
2023-07-19T03:44:07.628Z,89.03
2023-07-19T03:46:35.120Z,89.00
2023-07-19T03:49:02.284Z,88.64
2023-07-19T03:51:29.504Z,88.62
2023-07-19T03:53:57.545Z,88.55
2023-07-19T03:56:24.680Z,88.94
2023-07-19T03:58:53.037Z,88.96
2023-07-19T04:01:20.600Z,88.82
2023-07-19T04:03:50.370Z,88.79
2023-07-19T04:06:18.671Z,88.92
2023-07-19T04:08:46.978Z,88.97
2023-07-19T04:11:14.093Z,89.01
2023-07-19T04:13:41.352Z,89.26
2023-07-19T04:16:08.544Z,89.79
2023-07-19T04:18:35.743Z,89.12
2023-07-19T04:21:03.823Z,89.88
2023-07-19T04:23:31.099Z,90.21
2023-07-19T04:25:59.678Z,90.10
2023-07-19T04:28:27.765Z,89.71
2023-07-19T04:30:55.461Z,89.96
2023-07-19T04:33:22.749Z,90.83
2023-07-19T04:35:50.767Z,91.46
2023-07-19T04:38:18.455Z,91.65
2023-07-19T04:40:45.739Z,91.79
2023-07-19T04:43:13.141Z,91.75
2023-07-19T04:45:45.002Z,91.64
2023-07-19T04:48:14.810Z,91.14
2023-07-19T04:50:41.903Z,90.82
2023-07-19T04:53:09.197Z,90.09
2023-07-19T04:55:36.457Z,89.22
2023-07-19T04:58:04.357Z,88.23
2023-07-19T05:00:31.506Z,88.16
2023-07-19T05:02:58.741Z,88.22
2023-07-19T05:05:27.321Z,87.91
2023-07-19T05:07:54.535Z,88.32
2023-07-19T05:10:22.617Z,87.92
2023-07-19T05:12:50.213Z,86.94
2023-07-19T05:15:17.527Z,86.34
2023-07-19T05:17:44.762Z,85.60
2023-07-19T05:20:12.568Z,84.91
2023-07-19T05:22:40.146Z,84.21
2023-07-19T05:25:08.218Z,83.88
2023-07-19T05:27:36.565Z,83.43
2023-07-19T05:30:05.843Z,81.49
2023-07-19T05:32:33.205Z,79.17
2023-07-19T05:35:00.809Z,78.20
2023-07-19T05:37:28.886Z,76.89
2023-07-19T05:39:56.155Z,76.59
2023-07-19T05:42:23.331Z,75.75
2023-07-19T05:44:50.400Z,75.99
2023-07-19T05:47:18.712Z,76.31
2023-07-19T05:49:46.426Z,75.02
2023-07-19T05:52:13.613Z,74.16
2023-07-19T05:54:40.715Z,73.60
2023-07-19T05:57:07.859Z,73.32
2023-07-19T05:59:35.831Z,72.48
2023-07-19T06:02:03.106Z,71.20
2023-07-19T06:04:30.626Z,71.18
2023-07-19T06:06:58.044Z,71.12
2023-07-19T06:09:25.593Z,70.78
2023-07-19T06:11:54.758Z,69.91
2023-07-19T06:14:21.846Z,70.40
2023-07-19T06:16:49.056Z,68.90
2023-07-19T06:19:17.779Z,67.80
2023-07-19T06:21:45.053Z,66.88
2023-07-19T06:24:12.234Z,66.42
2023-07-19T06:26:39.359Z,67.63
2023-07-19T06:29:06.497Z,65.36
2023-07-19T06:31:34.107Z,64.95
2023-07-19T06:34:01.641Z,64.24
2023-07-19T06:36:29.212Z,63.62
2023-07-19T06:38:56.840Z,63.52
2023-07-19T06:41:24.089Z,64.22
2023-07-19T06:43:51.287Z,63.36
2023-07-19T06:46:18.387Z,63.55
2023-07-19T06:48:46.412Z,61.90
2023-07-19T06:51:13.591Z,61.52
2023-07-19T06:53:41.476Z,61.17
2023-07-19T06:56:09.024Z,60.68
2023-07-19T06:58:36.138Z,61.03
2023-07-19T07:01:03.274Z,60.44
2023-07-19T07:03:31.586Z,58.69
2023-07-19T07:06:01.039Z,58.43
2023-07-19T07:08:29.391Z,58.58
2023-07-19T07:10:56.523Z,57.07
2023-07-19T07:13:23.682Z,57.92
2023-07-19T07:15:53.089Z,59.15
2023-07-19T07:18:20.246Z,57.32
2023-07-19T07:20:47.896Z,57.47
2023-07-19T07:23:15.401Z,57.21
2023-07-19T07:25:42.674Z,56.92
2023-07-19T07:28:09.990Z,57.67
2023-07-19T07:30:38.254Z,56.67
2023-07-19T07:33:06.093Z,56.68
2023-07-19T07:35:33.422Z,56.41
2023-07-19T07:38:00.636Z,56.00
2023-07-19T07:40:27.743Z,57.44
2023-07-19T07:42:54.904Z,56.83
2023-07-19T07:45:22.239Z,56.08
2023-07-19T07:47:49.408Z,56.11
2023-07-19T07:50:17.907Z,56.07
2023-07-19T07:52:52.545Z,54.66
2023-07-19T07:55:22.623Z,55.02
2023-07-19T07:57:50.786Z,54.00
2023-07-19T08:00:19.254Z,54.52
2023-07-19T08:02:46.687Z,53.57
2023-07-19T08:05:13.845Z,53.77
2023-07-19T08:07:41.222Z,54.79
2023-07-19T08:10:08.675Z,54.59
2023-07-19T08:12:35.772Z,54.61
2023-07-19T08:15:02.881Z,54.63
2023-07-19T08:17:30.048Z,54.07
2023-07-19T08:19:57.256Z,54.53
2023-07-19T08:22:25.986Z,55.93
2023-07-19T08:24:52.948Z,55.35
2023-07-19T08:27:20.099Z,56.11
2023-07-19T08:29:47.641Z,55.76
2023-07-19T08:32:15.149Z,53.90
2023-07-19T08:34:44.069Z,53.63
2023-07-19T08:37:11.238Z,53.36
2023-07-19T08:39:38.639Z,53.64
2023-07-19T08:42:06.034Z,54.61
2023-07-19T08:44:33.316Z,53.99
2023-07-19T08:47:00.511Z,54.46
2023-07-19T08:49:27.658Z,54.57
2023-07-19T08:51:54.742Z,53.13
2023-07-19T08:54:21.933Z,53.66
2023-07-19T08:56:49.859Z,53.23
2023-07-19T08:59:17.536Z,54.28
2023-07-19T09:01:44.718Z,54.56
2023-07-19T09:04:13.477Z,55.00
2023-07-19T09:06:40.881Z,54.17
2023-07-19T09:09:13.852Z,54.97
2023-07-19T09:11:52.463Z,54.10
2023-07-19T09:14:19.588Z,54.36
2023-07-19T09:16:47.311Z,55.27
2023-07-19T09:19:14.508Z,55.90
2023-07-19T09:21:48.625Z,55.32
2023-07-19T09:24:16.197Z,55.51
2023-07-19T09:26:59.192Z,55.37
2023-07-19T09:29:30.235Z,55.02
2023-07-19T09:32:01.449Z,55.82
2023-07-19T09:34:30.181Z,56.34
2023-07-19T09:36:57.220Z,55.12
2023-07-19T09:39:24.418Z,55.99
2023-07-19T09:41:53.501Z,55.22
2023-07-19T09:44:20.696Z,56.06
2023-07-19T09:46:47.913Z,55.54
2023-07-19T09:49:17.997Z,55.60
2023-07-19T09:51:45.218Z,55.01
2023-07-19T09:54:14.043Z,53.81
2023-07-19T09:56:42.166Z,54.19
2023-07-19T09:59:16.400Z,54.57
2023-07-19T10:01:44.919Z,54.82
2023-07-19T10:04:25.889Z,54.72
2023-07-19T10:07:16.546Z,54.86
2023-07-19T10:09:45.830Z,55.65
2023-07-19T10:12:19.323Z,54.98
2023-07-19T10:15:02.409Z,55.71
2023-07-19T10:17:31.378Z,55.17
2023-07-19T10:20:14.292Z,54.02
2023-07-19T10:22:48.468Z,55.34
2023-07-19T10:25:17.882Z,56.32
2023-07-19T10:27:55.375Z,56.56
2023-07-19T10:30:22.599Z,56.57
2023-07-19T10:32:52.526Z,55.77
2023-07-19T10:35:31.943Z,56.56
2023-07-19T10:38:01.024Z,56.25
2023-07-19T10:40:28.705Z,56.57
2023-07-19T10:42:56.020Z,56.35
2023-07-19T10:45:27.156Z,57.03
2023-07-19T10:47:55.180Z,57.43
2023-07-19T10:50:26.190Z,56.25
2023-07-19T10:52:53.317Z,55.92
2023-07-19T10:55:46.712Z,54.05
2023-07-19T10:58:07.634Z,54.50
2023-07-19T11:00:39.457Z,54.70
2023-07-19T11:03:07.165Z,54.54
2023-07-19T11:05:34.743Z,54.39
2023-07-19T11:08:01.903Z,54.24
2023-07-19T11:10:29.239Z,53.95
2023-07-19T11:12:58.866Z,53.79
2023-07-19T11:15:28.282Z,53.19
2023-07-19T11:17:58.990Z,53.77
2023-07-19T11:20:31.840Z,54.06
2023-07-19T11:23:09.648Z,53.49
2023-07-19T11:25:36.928Z,54.93
2023-07-19T11:28:04.244Z,54.34
2023-07-19T11:30:41.496Z,55.07
2023-07-19T11:33:10.975Z,54.95
2023-07-19T11:35:39.127Z,54.48
2023-07-19T11:38:06.263Z,53.52
2023-07-19T11:40:33.461Z,52.96
2023-07-19T11:43:02.688Z,52.73
2023-07-19T11:45:30.026Z,52.47
2023-07-19T11:48:00.045Z,53.13
2023-07-19T11:50:27.295Z,52.11
2023-07-19T11:53:03.086Z,52.49
2023-07-19T11:55:31.011Z,51.62
2023-07-19T11:58:04.448Z,51.31
2023-07-19T12:00:32.583Z,52.43
2023-07-19T12:03:00.080Z,51.63
2023-07-19T12:05:27.471Z,50.50
2023-07-19T12:07:56.148Z,49.70
2023-07-19T12:10:24.178Z,49.50
2023-07-19T12:12:54.964Z,48.03
2023-07-19T12:15:25.733Z,48.84
2023-07-19T12:17:54.264Z,50.35
2023-07-19T12:20:21.439Z,48.02
2023-07-19T12:22:50.598Z,47.86
2023-07-19T12:25:19.431Z,47.99
2023-07-19T12:27:48.862Z,47.21
2023-07-19T12:30:15.960Z,47.62
2023-07-19T12:32:43.222Z,48.39
2023-07-19T12:35:10.413Z,48.67
2023-07-19T12:37:37.551Z,47.65
2023-07-19T12:40:10.617Z,46.95
2023-07-19T12:42:38.005Z,45.33
2023-07-19T12:45:06.848Z,46.37
2023-07-19T12:47:38.014Z,45.49
2023-07-19T12:50:08.736Z,44.66
2023-07-19T12:52:50.021Z,44.89
2023-07-19T12:55:19.350Z,44.50
2023-07-19T12:57:46.524Z,43.91
2023-07-19T13:00:15.081Z,43.97
2023-07-19T13:02:45.837Z,41.68
2023-07-19T13:05:13.475Z,41.83
2023-07-19T13:07:40.629Z,40.75
2023-07-19T13:10:11.932Z,42.10
2023-07-19T13:12:39.677Z,42.10
2023-07-19T13:15:08.089Z,42.54
2023-07-19T13:17:36.258Z,41.92
2023-07-19T13:20:10.262Z,41.17
2023-07-19T13:22:38.236Z,41.25
2023-07-19T13:25:07.034Z,41.21
2023-07-19T13:27:36.454Z,41.40
2023-07-19T13:30:09.010Z,40.58
2023-07-19T13:32:37.119Z,39.33
2023-07-19T13:35:05.068Z,40.20
2023-07-19T13:40:03.290Z,39.22
2023-07-19T13:42:34.041Z,37.79
2023-07-19T13:45:02.934Z,36.63
2023-07-19T13:47:30.134Z,34.26
2023-07-19T13:49:57.277Z,34.67
2023-07-19T13:52:24.515Z,34.22
2023-07-19T13:54:52.974Z,34.40
2023-07-19T13:57:20.161Z,35.72
2023-07-19T13:59:47.887Z,34.19
2023-07-19T14:02:15.034Z,34.42
2023-07-19T14:04:42.379Z,35.05
2023-07-19T14:07:09.549Z,34.67
2023-07-19T14:09:36.997Z,34.64
2023-07-19T14:12:04.723Z,35.12
2023-07-19T14:14:45.020Z,35.11
2023-07-19T14:17:12.715Z,36.14
2023-07-19T14:19:40.134Z,36.73
2023-07-19T14:22:07.777Z,35.60
2023-07-19T14:24:34.957Z,34.87
2023-07-19T14:27:02.524Z,35.58
2023-07-19T14:29:29.868Z,34.97
2023-07-19T14:31:57.149Z,35.77
2023-07-19T14:34:25.948Z,35.87
2023-07-19T14:36:53.576Z,35.61
2023-07-19T14:39:21.875Z,35.92
2023-07-19T14:41:57.924Z,36.22
2023-07-19T14:44:26.228Z,37.13
2023-07-19T14:46:53.331Z,37.08
2023-07-19T14:49:20.615Z,37.65
2023-07-19T14:51:47.735Z,37.91
2023-07-19T14:54:15.098Z,38.29
2023-07-19T14:56:43.696Z,38.71
2023-07-19T14:59:10.842Z,38.61
2023-07-19T15:01:38.058Z,38.41
2023-07-19T15:04:05.337Z,38.40
2023-07-19T15:06:32.578Z,38.65
2023-07-19T15:09:01.842Z,38.65
2023-07-19T15:11:29.587Z,38.23
2023-07-19T15:13:59.232Z,37.51
2023-07-19T15:16:26.805Z,38.64
2023-07-19T15:18:54.350Z,38.85
2023-07-19T15:21:21.497Z,38.70
2023-07-19T15:23:50.368Z,39.03
2023-07-19T15:28:48.307Z,38.89
2023-07-19T15:31:15.764Z,38.96
2023-07-19T15:33:42.929Z,38.38
2023-07-19T15:36:10.109Z,39.02
2023-07-19T15:38:45.669Z,39.09
2023-07-19T15:41:13.841Z,39.37
2023-07-19T15:43:44.440Z,39.52
2023-07-19T15:46:14.461Z,39.47
2023-07-19T15:48:41.836Z,39.14
2023-07-19T15:51:08.974Z,39.20
2023-07-19T15:53:37.798Z,39.64
2023-07-19T15:56:07.155Z,39.67
2023-07-19T15:58:34.524Z,40.02
2023-07-19T16:01:02.560Z,39.87
2023-07-19T16:03:30.190Z,40.15
2023-07-19T16:05:57.604Z,40.22
2023-07-19T16:08:24.793Z,40.48
2023-07-19T16:10:51.962Z,40.69
2023-07-19T16:13:19.028Z,40.82
2023-07-19T16:15:47.006Z,41.40
2023-07-19T16:18:14.651Z,42.45
2023-07-19T16:20:43.432Z,43.37
2023-07-19T16:23:11.094Z,44.89
2023-07-19T16:25:38.395Z,45.86
2023-07-19T16:28:05.612Z,47.12
2023-07-19T16:30:33.144Z,47.56
2023-07-19T16:33:00.623Z,48.63
2023-07-19T16:35:31.804Z,49.13
2023-07-19T16:37:59.058Z,49.70
2023-07-19T16:40:26.307Z,50.37
2023-07-19T16:42:53.452Z,50.77
2023-07-19T16:45:20.555Z,49.88
2023-07-19T16:47:47.726Z,49.44
2023-07-19T16:50:17.292Z,50.14
2023-07-19T16:52:44.453Z,49.88
2023-07-19T16:55:11.936Z,49.11
2023-07-19T16:57:39.853Z,49.19
2023-07-19T17:00:17.118Z,49.37
2023-07-19T17:02:45.268Z,49.70
2023-07-19T17:05:12.539Z,49.09
2023-07-19T17:07:39.869Z,49.96
2023-07-19T17:10:07.470Z,50.32
2023-07-19T17:12:34.652Z,50.67
2023-07-19T17:15:02.006Z,50.15
2023-07-19T17:17:29.420Z,50.35
2023-07-19T17:19:56.642Z,50.67
2023-07-19T17:22:25.640Z,50.63
2023-07-19T17:24:52.713Z,50.36
2023-07-19T17:27:20.238Z,50.49
2023-07-19T17:29:47.292Z,50.15
2023-07-19T17:32:14.518Z,50.02
2023-07-19T17:34:41.679Z,50.41
2023-07-19T17:37:08.809Z,50.12
2023-07-19T17:39:35.986Z,50.33
2023-07-19T17:42:03.508Z,50.50
2023-07-19T17:44:31.875Z,50.63
2023-07-19T17:46:58.988Z,50.94
2023-07-19T17:49:26.168Z,51.44
2023-07-19T17:51:53.599Z,51.87
2023-07-19T17:54:22.406Z,52.35
2023-07-19T17:56:55.555Z,52.67
2023-07-19T17:59:26.188Z,53.50
2023-07-19T18:01:54.853Z,54.32
2023-07-19T18:04:22.438Z,55.02
2023-07-19T18:06:50.059Z,55.05
2023-07-19T18:09:22.171Z,55.17
2023-07-19T18:11:49.430Z,55.82
2023-07-19T18:14:16.956Z,57.17
2023-07-19T18:16:44.344Z,57.92
2023-07-19T18:19:11.968Z,58.24
2023-07-19T18:21:45.127Z,57.71
2023-07-19T18:24:18.184Z,57.49
2023-07-19T18:26:47.203Z,57.58
2023-07-19T18:29:16.334Z,57.62
2023-07-19T18:31:43.626Z,57.66
2023-07-19T18:34:29.531Z,57.81
2023-07-19T18:36:57.613Z,57.02
2023-07-19T18:39:26.018Z,57.53
2023-07-19T18:41:53.086Z,57.91
2023-07-19T18:44:21.948Z,58.31
2023-07-19T18:46:49.685Z,58.85
2023-07-19T18:49:17.896Z,58.83
2023-07-19T18:51:45.203Z,59.34
2023-07-19T18:54:15.915Z,59.86
2023-07-19T18:56:43.581Z,60.56
2023-07-19T18:59:11.687Z,61.57
2023-07-19T19:01:39.487Z,62.44
2023-07-19T19:04:06.761Z,62.70
2023-07-19T19:06:34.011Z,63.02
2023-07-19T19:09:06.991Z,63.37
2023-07-19T19:11:34.427Z,63.41
2023-07-19T19:14:01.807Z,62.93
2023-07-19T19:16:29.893Z,62.61
2023-07-19T19:19:00.572Z,63.05
2023-07-19T19:21:29.913Z,63.36
2023-07-19T19:23:58.622Z,63.64
2023-07-19T19:26:25.877Z,63.79
2023-07-19T19:28:54.252Z,64.19
2023-07-19T19:31:22.986Z,64.91
2023-07-19T19:33:50.939Z,65.50
2023-07-19T19:36:18.205Z,66.38
2023-07-19T19:38:45.614Z,66.70
2023-07-19T19:41:13.085Z,65.93
2023-07-19T19:43:40.331Z,66.57
2023-07-19T19:46:07.590Z,66.89
2023-07-19T19:48:35.211Z,67.03
2023-07-19T19:51:02.380Z,66.45
2023-07-19T19:53:32.019Z,65.91
2023-07-19T19:56:17.669Z,64.74
2023-07-19T19:58:47.098Z,65.28
2023-07-19T20:01:15.895Z,65.49
2023-07-19T20:03:43.357Z,66.00
2023-07-19T20:06:10.932Z,66.61
2023-07-19T20:08:38.219Z,66.99
2023-07-19T20:11:06.086Z,66.44
2023-07-19T20:13:33.392Z,66.07
2023-07-19T20:16:01.281Z,65.64
2023-07-19T20:20:59.669Z,65.14
2023-07-19T20:23:26.949Z,64.93
2023-07-19T20:26:11.206Z,64.78
2023-07-19T20:28:39.965Z,64.97
2023-07-19T20:31:07.229Z,65.39
2023-07-19T20:33:34.967Z,65.43
2023-07-19T20:43:35.257Z,64.95
2023-07-19T20:48:34.808Z,65.23
2023-07-19T20:51:04.017Z,65.46
2023-07-19T20:53:31.334Z,65.75
2023-07-19T20:55:58.551Z,66.02
2023-07-19T20:58:26.222Z,66.17
2023-07-19T21:00:56.753Z,66.62
2023-07-19T21:03:25.684Z,66.78
2023-07-19T21:05:53.062Z,66.73
2023-07-19T21:08:20.436Z,66.90
2023-07-19T21:10:47.795Z,67.04
2023-07-19T21:13:14.998Z,67.50
2023-07-19T21:15:42.187Z,67.74
2023-07-19T21:18:09.496Z,67.93
2023-07-19T21:20:36.712Z,68.01
2023-07-19T21:23:03.991Z,68.43
2023-07-19T21:25:31.332Z,68.69
2023-07-19T21:27:58.521Z,69.11
2023-07-19T21:30:25.829Z,69.42
2023-07-19T21:32:53.032Z,69.10
2023-07-19T21:35:20.191Z,69.13
2023-07-19T21:37:47.393Z,69.19
2023-07-19T21:40:15.852Z,69.38
2023-07-19T21:42:43.121Z,69.63
2023-07-19T21:45:10.759Z,69.44
2023-07-19T21:47:38.321Z,69.55
2023-07-19T21:50:06.264Z,69.63
2023-07-19T21:52:33.387Z,70.13
2023-07-19T21:55:00.559Z,70.70
2023-07-19T21:57:28.275Z,70.56
2023-07-19T21:59:58.119Z,70.77
2023-07-19T22:02:25.422Z,71.07
2023-07-19T22:04:52.672Z,71.32
2023-07-19T22:07:19.852Z,70.66
2023-07-19T22:09:51.021Z,70.51
2023-07-19T22:12:18.764Z,70.65
2023-07-19T22:14:53.937Z,71.10
2023-07-19T22:17:28.974Z,71.66
2023-07-19T22:19:56.206Z,72.14
2023-07-19T22:22:23.462Z,72.57
2023-07-19T22:24:50.788Z,72.70
2023-07-19T22:27:17.945Z,72.78
2023-07-19T22:29:45.724Z,72.87
2023-07-19T22:32:12.974Z,73.09
2023-07-19T22:34:40.174Z,73.12
2023-07-19T22:37:07.436Z,73.63
2023-07-19T22:39:35.306Z,73.86
2023-07-19T22:42:02.452Z,74.38
2023-07-19T22:44:31.512Z,74.45
2023-07-19T22:46:58.837Z,74.57
2023-07-19T22:49:26.162Z,75.01
2023-07-19T22:51:54.709Z,75.26
2023-07-19T22:54:23.002Z,75.38
2023-07-19T22:56:50.183Z,75.62
2023-07-19T22:59:17.351Z,75.92
2023-07-19T23:01:46.206Z,76.51
2023-07-19T23:04:13.374Z,76.81
2023-07-19T23:06:41.375Z,77.01
2023-07-19T23:09:08.660Z,77.34
2023-07-19T23:11:39.561Z,77.62
2023-07-19T23:14:09.950Z,77.97
2023-07-19T23:16:37.685Z,78.09
2023-07-19T23:19:04.881Z,78.34
2023-07-19T23:21:33.038Z,78.74
2023-07-19T23:24:00.332Z,79.02
2023-07-19T23:26:27.588Z,79.65
2023-07-19T23:28:55.983Z,79.70
2023-07-19T23:31:23.252Z,79.43
2023-07-19T23:33:50.460Z,79.67
2023-07-19T23:36:17.734Z,79.62
2023-07-19T23:38:46.613Z,79.47
2023-07-19T23:41:13.945Z,79.69
2023-07-19T23:43:41.296Z,80.23
2023-07-19T23:46:11.620Z,80.47
2023-07-19T23:48:40.800Z,80.73
2023-07-19T23:51:07.975Z,80.62
2023-07-19T23:53:35.203Z,80.84
2023-07-19T23:56:02.465Z,80.85
2023-07-19T23:58:29.696Z,80.64
